Time;durP1;ratioP1;P1;durP2;ratioP2;P2;SDS_P1;SDS_P2;PMS_P1;PMS_P2;Temp;Humidity;BMP_temperature;BMP_pressure;BME280_temperature;BME280_humidity;BME280_pressure;Samples;Min_cycle;Max_cycle;Signal;HPM_P1;HPM_P2
2023/05/20 00:00:11;;;;;;;2.28;0.30;;;;;;;7.74;54.60;103268.72;5034424;28;20045;-66
2023/05/20 00:02:38;;;;;;;1.00;0.20;;;;;;;7.73;54.79;103268.66;5036762;28;20044;-65
2023/05/20 00:05:05;;;;;;;0.75;0.20;;;;;;;7.71;55.16;103267.69;5036363;28;20064;-65
2023/05/20 00:07:32;;;;;;;0.73;0.60;;;;;;;7.67;54.68;103271.94;5036619;28;20048;-66
2023/05/20 00:09:59;;;;;;;0.60;0.20;;;;;;;7.65;54.82;103276.19;5035209;28;20049;-65
2023/05/20 00:12:27;;;;;;;1.08;0.22;;;;;;;7.64;55.10;103269.22;5037191;28;20053;-66
2023/05/20 00:14:54;;;;;;;1.80;0.25;;;;;;;7.62;55.15;103276.09;5032275;28;20064;-66
2023/05/20 00:17:21;;;;;;;0.70;0.20;;;;;;;7.60;55.02;103272.56;5034734;28;20056;-66
2023/05/20 00:19:48;;;;;;;1.40;0.22;;;;;;;7.57;55.25;103277.63;5036501;28;20520;-66
2023/05/20 00:22:15;;;;;;;0.75;0.20;;;;;;;7.55;55.43;103276.72;5035662;28;20059;-66
2023/05/20 00:24:41;;;;;;;0.30;0.30;;;;;;;7.53;55.38;103271.47;5036142;28;20049;-65
2023/05/20 00:27:08;;;;;;;0.47;0.25;;;;;;;7.52;55.65;103271.41;5036206;28;20049;-65
2023/05/20 00:29:36;;;;;;;2.42;0.20;;;;;;;7.49;55.65;103273.91;5032594;28;20044;-65
2023/05/20 00:32:03;;;;;;;0.75;0.20;;;;;;;7.48;55.94;103278.22;5034358;28;20037;-64
2023/05/20 00:34:30;;;;;;;2.05;0.30;;;;;;;7.46;56.11;103278.97;5033378;28;20270;-65
2023/05/20 00:36:57;;;;;;;2.85;0.20;;;;;;;7.42;55.84;103268.47;5037035;28;20049;-65
2023/05/20 00:39:24;;;;;;;0.93;0.28;;;;;;;7.40;55.90;103264.09;5034928;28;20055;-65
2023/05/20 00:41:51;;;;;;;1.02;0.20;;;;;;;7.38;56.22;103264.03;5003073;28;20086;-65
2023/05/20 00:44:17;;;;;;;0.35;0.20;;;;;;;7.38;56.05;103273.53;5034170;28;20053;-65
2023/05/20 00:46:48;;;;;;;0.28;0.17;;;;;;;7.35;56.19;103270.84;5039307;28;20580;-65
2023/05/20 00:49:15;;;;;;;0.40;0.20;;;;;;;7.31;56.20;103275.03;5037419;28;20048;-65
2023/05/20 00:51:42;;;;;;;0.20;0.20;;;;;;;7.30;56.48;103270.66;5040169;28;20943;-65
2023/05/20 00:54:10;;;;;;;0.30;0.20;;;;;;;7.28;56.65;103272.31;5037346;28;20423;-65
2023/05/20 00:56:37;;;;;;;0.30;0.22;;;;;;;7.26;56.61;103278.28;5040427;28;20152;-65
2023/05/20 00:59:05;;;;;;;1.67;0.30;;;;;;;7.24;56.80;103273.06;5039521;28;20059;-65
2023/05/20 01:01:31;;;;;;;1.38;0.20;;;;;;;7.22;57.03;103277.31;5038463;28;20057;-65
2023/05/20 01:04:00;;;;;;;0.60;0.20;;;;;;;7.19;57.19;103285.88;5035881;28;20053;-65
2023/05/20 01:06:28;;;;;;;0.40;0.20;;;;;;;7.17;57.08;103279.75;5038543;28;20056;-64
2023/05/20 01:08:55;;;;;;;0.32;0.20;;;;;;;7.16;57.31;103272.78;5038716;28;20141;-65
2023/05/20 01:11:28;;;;;;;0.30;0.20;;;;;;;7.12;57.33;103289.09;5037648;28;20137;-65
2023/05/20 01:14:01;;;;;;;0.88;0.35;;;;;;;7.09;57.47;103282.91;5038477;28;20132;-65
2023/05/20 01:16:30;;;;;;;1.63;0.30;;;;;;;7.10;57.47;103289.88;5039991;28;20052;-65
2023/05/20 01:18:59;;;;;;;0.35;0.20;;;;;;;7.07;57.33;103294.97;5039125;28;20060;-65
2023/05/20 01:21:27;;;;;;;2.60;0.20;;;;;;;7.04;57.73;103294.84;5038544;28;20056;-65
2023/05/20 01:23:56;;;;;;;1.77;0.20;;;;;;;7.04;57.93;103300.06;5038830;28;20403;-65
2023/05/20 01:26:25;;;;;;;2.35;0.20;;;;;;;7.02;57.92;103301.69;5037723;28;20056;-65
2023/05/20 01:28:53;;;;;;;0.40;0.20;;;;;;;6.96;58.12;103292.84;5039227;28;20061;-65
2023/05/20 01:31:26;;;;;;;0.70;0.20;;;;;;;6.97;58.16;103292.03;5036918;28;20048;-65
2023/05/20 01:33:57;;;;;;;0.60;0.20;;;;;;;6.95;58.32;103290.22;5036862;28;20076;-65
2023/05/20 01:36:25;;;;;;;0.47;0.30;;;;;;;6.90;58.19;103289.16;5034834;28;20159;-65
2023/05/20 01:38:54;;;;;;;0.95;0.30;;;;;;;6.91;58.12;103299.56;5039947;28;20052;-65
2023/05/20 01:41:25;;;;;;;0.20;0.20;;;;;;;6.90;58.35;103290.03;5036770;28;20047;-66
2023/05/20 01:43:52;;;;;;;2.65;0.20;;;;;;;6.89;58.53;103300.38;5038637;28;20139;-65
2023/05/20 01:46:19;;;;;;;1.83;0.20;;;;;;;6.86;58.56;103290.75;5039034;28;20140;-66
2023/05/20 01:48:45;;;;;;;1.35;0.20;;;;;;;6.86;58.68;103297.63;5032971;28;20053;-65
2023/05/20 01:51:12;;;;;;;1.48;0.20;;;;;;;6.85;58.58;103295.88;5037484;28;20053;-64
2023/05/20 01:53:39;;;;;;;0.30;0.20;;;;;;;6.83;58.81;103293.25;5038345;28;21096;-65
2023/05/20 01:56:06;;;;;;;0.40;0.30;;;;;;;6.82;58.78;103287.97;5038877;28;21751;-65
2023/05/20 01:58:34;;;;;;;2.28;0.20;;;;;;;6.79;59.00;103293.94;5037513;28;20053;-65
2023/05/20 02:01:02;;;;;;;2.05;0.20;;;;;;;6.80;59.11;103295.69;5037645;28;20048;-65
2023/05/20 02:03:29;;;;;;;0.65;0.17;;;;;;;6.76;58.92;103297.31;5036808;28;20049;-65
2023/05/20 02:05:56;;;;;;;0.50;0.10;;;;;;;6.79;59.12;103304.31;5060312;28;20045;-65
2023/05/20 02:08:22;;;;;;;1.77;0.50;;;;;;;6.78;59.11;103299.97;5061718;28;20048;-72
2023/05/20 02:10:49;;;;;;;0.50;0.17;;;;;;;6.77;59.20;103292.97;5063938;28;20057;-72
2023/05/20 02:13:16;;;;;;;1.08;0.20;;;;;;;6.75;59.21;103290.34;5061372;28;20590;-72
2023/05/20 02:15:44;;;;;;;0.30;0.20;;;;;;;6.75;59.48;103292.06;5057355;28;20056;-71
2023/05/20 02:18:12;;;;;;;0.85;0.15;;;;;;;6.74;59.41;103295.47;5064534;28;20060;-71
2023/05/20 02:20:40;;;;;;;0.30;0.20;;;;;;;6.73;59.47;103293.72;5056800;28;20132;-72
2023/05/20 02:23:07;;;;;;;1.38;0.22;;;;;;;6.73;59.56;103297.19;5060777;28;20507;-71
2023/05/20 02:25:34;;;;;;;4.25;0.20;;;;;;;6.72;59.67;103295.44;5059268;28;20571;-71
2023/05/20 02:28:04;;;;;;;3.03;0.22;;;;;;;6.73;59.89;103298.91;5059402;28;20114;-71
2023/05/20 02:30:31;;;;;;;1.17;0.30;;;;;;;6.72;59.90;103304.94;5055742;28;20048;-72
2023/05/20 02:33:00;;;;;;;0.30;0.20;;;;;;;6.70;59.94;103299.66;5065370;28;20040;-72
2023/05/20 02:35:26;;;;;;;0.40;0.17;;;;;;;6.72;59.88;103307.53;5048243;28;20055;-72
2023/05/20 02:37:53;;;;;;;0.85;0.20;;;;;;;6.62;60.22;103284.63;5064882;28;20060;-72
2023/05/20 02:40:20;;;;;;;0.63;0.20;;;;;;;6.71;60.25;103314.41;5060410;28;20044;-72
2023/05/20 02:42:47;;;;;;;0.40;0.28;;;;;;;6.71;60.48;103311.81;5065159;28;20044;-71
2023/05/20 02:45:14;;;;;;;1.65;0.20;;;;;;;6.70;60.56;103304.88;5063468;28;20049;-72
2023/05/20 02:47:41;;;;;;;2.08;0.30;;;;;;;6.72;60.63;103304.94;5062538;28;20184;-72
2023/05/20 02:50:09;;;;;;;0.85;0.25;;;;;;;6.72;60.46;103307.53;5057875;28;20052;-72
2023/05/20 02:52:38;;;;;;;0.30;0.20;;;;;;;6.71;60.58;103305.75;5063080;28;20094;-72
2023/05/20 02:55:06;;;;;;;0.63;0.30;;;;;;;6.72;61.04;103312.72;5061995;28;20511;-72
2023/05/20 02:57:36;;;;;;;2.25;0.25;;;;;;;6.73;60.82;103317.09;5061348;28;20064;-72
2023/05/20 03:00:06;;;;;;;2.67;0.30;;;;;;;6.72;60.94;103310.13;5058722;28;20056;-72
2023/05/20 03:02:33;;;;;;;2.00;0.30;;;;;;;6.75;60.92;103312.84;5060955;28;20052;-73
2023/05/20 03:05:00;;;;;;;1.70;0.20;;;;;;;6.74;61.30;103308.44;5064019;28;20425;-72
2023/05/20 03:07:28;;;;;;;0.40;0.20;;;;;;;6.75;61.48;103313.72;5059018;28;20041;-73
2023/05/20 03:09:55;;;;;;;0.20;0.13;;;;;;;6.79;61.58;103309.53;5057093;28;20041;-72
2023/05/20 03:12:24;;;;;;;1.15;0.30;;;;;;;6.80;61.53;103308.69;5061534;28;20044;-71
2023/05/20 03:14:54;;;;;;;2.15;0.20;;;;;;;6.83;61.85;103306.22;5061086;28;20658;-72
2023/05/20 03:17:20;;;;;;;0.90;0.28;;;;;;;6.86;62.03;103319.34;5060947;28;20052;-72
2023/05/20 03:19:48;;;;;;;1.10;0.30;;;;;;;6.90;62.22;103317.72;5059917;28;20425;-72
2023/05/20 03:22:14;;;;;;;1.95;0.35;;;;;;;6.91;62.59;103315.16;5061955;28;20044;-72
2023/05/20 03:24:43;;;;;;;0.40;0.30;;;;;;;6.94;62.76;103317.00;5064396;28;20044;-71
2023/05/20 03:27:09;;;;;;;0.95;0.35;;;;;;;6.98;62.57;103319.78;5058684;28;20094;-72
2023/05/20 03:29:36;;;;;;;1.67;0.52;;;;;;;7.04;62.83;103326.03;5057279;28;20071;-72
2023/05/20 03:32:03;;;;;;;1.05;0.20;;;;;;;7.08;62.90;103327.91;5061553;28;20060;-72
2023/05/20 03:34:30;;;;;;;1.27;0.30;;;;;;;7.14;63.05;103330.72;5064969;28;20055;-72
2023/05/20 03:36:58;;;;;;;2.53;0.32;;;;;;;7.18;63.31;103335.22;5062803;28;20102;-73
2023/05/20 03:39:25;;;;;;;0.77;0.25;;;;;;;7.23;63.41;103331.09;5063048;28;20048;-73
2023/05/20 03:41:53;;;;;;;0.52;0.30;;;;;;;7.30;63.34;103324.38;5063007;28;20045;-73
2023/05/20 03:44:20;;;;;;;3.85;0.32;;;;;;;7.36;63.42;103335.00;5059887;28;20527;-72
2023/05/20 03:46:47;;;;;;;3.60;0.30;;;;;;;7.41;63.42;103330.84;5060250;28;20091;-72
2023/05/20 03:49:14;;;;;;;2.70;0.40;;;;;;;7.49;63.33;103334.63;5061002;28;20045;-73
2023/05/20 03:51:41;;;;;;;0.82;0.30;;;;;;;7.55;63.56;103328.75;5059895;28;20456;-69
2023/05/20 03:54:07;;;;;;;1.42;0.30;;;;;;;7.62;63.55;103333.31;5064556;28;20048;-69
2023/05/20 03:56:35;;;;;;;1.55;0.30;;;;;;;7.63;63.89;103332.50;5060642;28;20052;-69
2023/05/20 03:59:03;;;;;;;0.70;0.30;;;;;;;7.76;63.90;103339.00;5060265;28;20396;-70
2023/05/20 04:01:30;;;;;;;1.98;0.28;;;;;;;7.83;63.70;103343.59;5050064;28;20059;-69
2023/05/20 04:03:57;;;;;;;1.50;0.32;;;;;;;7.89;63.87;103341.19;5056015;28;20048;-70
2023/05/20 04:06:25;;;;;;;2.17;0.30;;;;;;;7.95;63.73;103338.78;5059412;28;20505;-69
2023/05/20 04:08:53;;;;;;;2.00;0.30;;;;;;;7.99;63.76;103334.56;5061570;28;20143;-69
2023/05/20 04:11:20;;;;;;;1.15;0.30;;;;;;;8.10;63.80;103338.41;5062738;28;20045;-69
2023/05/20 04:13:47;;;;;;;3.38;0.40;;;;;;;8.15;64.07;103338.56;5057971;28;20041;-69
2023/05/20 04:16:15;;;;;;;2.05;0.30;;;;;;;8.25;64.26;103341.53;5062504;28;20076;-69
2023/05/20 04:18:44;;;;;;;3.08;0.43;;;;;;;8.29;64.05;103332.97;5053982;28;20049;-70
2023/05/20 04:21:11;;;;;;;2.05;0.30;;;;;;;8.44;64.23;103339.53;5061327;28;20052;-69
2023/05/20 04:23:38;;;;;;;2.63;0.47;;;;;;;8.54;64.07;103329.44;5061218;28;20052;-70
2023/05/20 04:26:05;;;;;;;1.00;0.30;;;;;;;8.67;64.14;103333.31;5058919;28;20447;-70
2023/05/20 04:28:32;;;;;;;0.80;0.22;;;;;;;8.78;63.76;103331.91;5062369;28;20148;-69
2023/05/20 04:31:01;;;;;;;1.55;0.20;;;;;;;8.92;64.07;103323.63;5059139;28;20050;-69
2023/05/20 04:33:30;;;;;;;2.45;0.30;;;;;;;9.01;63.76;103321.28;5057850;28;20049;-70
2023/05/20 04:35:57;;;;;;;4.07;0.60;;;;;;;9.19;62.44;103323.50;5055581;28;20052;-70
2023/05/20 04:38:28;;;;;;;3.33;0.40;;;;;;;9.34;62.71;103323.06;5060033;28;20049;-69
2023/05/20 04:40:57;;;;;;;4.00;0.22;;;;;;;9.48;61.90;103320.81;5062580;28;20481;-70
2023/05/20 04:43:24;;;;;;;1.52;0.30;;;;;;;9.64;61.51;103323.88;5060359;28;20564;-70
2023/05/20 04:45:52;;;;;;;4.40;0.30;;;;;;;9.82;61.17;103322.63;5059129;28;20083;-70
2023/05/20 04:48:21;;;;;;;1.50;0.20;;;;;;;9.97;60.30;103316.88;5058401;28;20079;-70
2023/05/20 04:50:50;;;;;;;1.15;0.20;;;;;;;10.03;60.55;103304.84;5062119;28;20053;-70
2023/05/20 04:53:17;;;;;;;1.83;0.20;;;;;;;10.34;59.90;103332.63;5058512;28;20151;-70
2023/05/20 04:55:45;;;;;;;2.92;0.20;;;;;;;10.51;59.19;103327.78;5055328;28;20052;-70
2023/05/20 04:58:14;;;;;;;2.40;0.40;;;;;;;10.70;59.02;103322.94;5058997;28;20060;-70
2023/05/20 05:00:41;;;;;;;1.48;0.20;;;;;;;10.87;58.53;103323.31;5055190;28;20040;-70
2023/05/20 05:03:08;;;;;;;2.67;0.30;;;;;;;11.04;58.07;103319.31;5062004;28;20041;-70
2023/05/20 05:05:36;;;;;;;1.80;0.17;;;;;;;11.23;57.79;103315.34;5062111;28;20053;-70
2023/05/20 05:08:05;;;;;;;1.88;0.30;;;;;;;11.39;57.22;103306.94;5053935;28;20040;-69
2023/05/20 05:10:33;;;;;;;0.40;0.20;;;;;;;11.57;56.87;103314.22;5059723;28;20456;-69
2023/05/20 05:13:00;;;;;;;3.03;0.30;;;;;;;11.74;56.31;103306.69;5062232;28;20049;-71
2023/05/20 05:15:26;;;;;;;2.53;0.30;;;;;;;11.92;56.17;103314.00;5056460;28;20063;-70
2023/05/20 05:17:53;;;;;;;1.67;0.20;;;;;;;12.10;55.71;103313.44;5056759;28;20049;-70
2023/05/20 05:20:20;;;;;;;3.40;0.30;;;;;;;12.25;55.27;103308.41;5056369;28;20516;-71
2023/05/20 05:22:49;;;;;;;2.35;0.30;;;;;;;12.42;54.61;103319.16;5062270;28;20045;-70
2023/05/20 05:25:17;;;;;;;1.63;0.40;;;;;;;12.56;54.14;103314.09;5058482;28;20055;-70
2023/05/20 05:27:44;;;;;;;2.22;0.20;;;;;;;12.70;54.07;103314.31;5061800;28;20063;-69
2023/05/20 05:30:11;;;;;;;0.77;0.20;;;;;;;12.83;53.11;103311.88;5063187;28;20075;-70
2023/05/20 05:32:38;;;;;;;1.30;0.20;;;;;;;12.99;53.21;103314.66;5062174;28;20067;-71
2023/05/20 05:35:06;;;;;;;2.35;0.20;;;;;;;13.10;53.41;103318.28;5061754;28;20555;-70
2023/05/20 05:37:32;;;;;;;1.73;0.43;;;;;;;13.22;53.31;103318.44;5062835;28;20052;-70
2023/05/20 05:39:59;;;;;;;4.82;0.30;;;;;;;13.27;52.97;103308.91;5059521;28;20044;-70
2023/05/20 05:42:27;;;;;;;2.15;0.20;;;;;;;13.43;52.67;103311.66;5063074;28;20057;-70
2023/05/20 05:44:54;;;;;;;1.42;0.20;;;;;;;13.52;52.75;103322.28;5065406;28;20052;-70
2023/05/20 05:47:21;;;;;;;1.08;0.30;;;;;;;13.57;52.35;103314.44;5064910;28;20044;-70
2023/05/20 05:49:48;;;;;;;1.60;0.22;;;;;;;13.64;52.20;103311.91;5061931;28;20055;-70
2023/05/20 05:52:15;;;;;;;1.55;0.47;;;;;;;13.71;51.96;103316.31;5065326;28;20057;-70
2023/05/20 05:54:42;;;;;;;1.80;0.20;;;;;;;13.77;51.78;103317.25;5064939;28;20063;-70
2023/05/20 05:57:10;;;;;;;1.75;0.20;;;;;;;13.81;51.20;103319.06;5063362;28;20049;-70
2023/05/20 05:59:39;;;;;;;0.55;0.20;;;;;;;13.82;50.72;103324.31;5061971;28;20051;-70
2023/05/20 06:02:06;;;;;;;1.08;0.40;;;;;;;13.86;50.63;103323.47;5061301;28;20060;-70
2023/05/20 06:04:33;;;;;;;3.00;0.47;;;;;;;13.92;50.65;103327.91;5059161;28;20047;-70
2023/05/20 06:06:59;;;;;;;0.73;0.20;;;;;;;13.95;50.47;103326.19;5061827;28;20041;-70
2023/05/20 06:09:26;;;;;;;0.50;0.20;;;;;;;13.99;50.28;103323.56;5061832;28;20412;-70
2023/05/20 06:11:53;;;;;;;2.28;0.15;;;;;;;14.01;50.13;103322.72;5063870;28;20053;-70
2023/05/20 06:14:20;;;;;;;1.25;0.25;;;;;;;14.04;49.73;103325.38;5060155;28;20065;-71
2023/05/20 06:16:48;;;;;;;2.63;0.20;;;;;;;14.01;49.36;103325.34;5026946;28;20525;-71
2023/05/20 06:19:15;;;;;;;1.33;0.20;;;;;;;14.06;48.58;103325.38;5044025;28;20045;-70
2023/05/20 06:21:42;;;;;;;1.42;0.68;;;;;;;14.01;48.42;103327.97;5041967;28;20041;-71
2023/05/20 06:24:08;;;;;;;2.45;0.20;;;;;;;14.00;47.94;103334.09;5032394;28;20053;-71
2023/05/20 06:26:35;;;;;;;0.80;0.10;;;;;;;14.01;47.91;103335.88;5038477;28;20437;-71
2023/05/20 06:29:02;;;;;;;1.33;0.30;;;;;;;14.02;47.62;103329.72;5041242;28;20108;-70
2023/05/20 06:31:29;;;;;;;0.95;0.40;;;;;;;14.02;47.61;103332.34;5038567;28;20060;-71
2023/05/20 06:33:58;;;;;;;1.67;0.20;;;;;;;14.03;47.27;103331.50;5041861;28;20072;-70
2023/05/20 06:36:24;;;;;;;2.20;0.20;;;;;;;14.03;46.95;103330.59;5040363;28;20441;-69
2023/05/20 06:38:51;;;;;;;0.98;0.20;;;;;;;14.05;47.11;103335.00;5039186;28;20052;-71
2023/05/20 06:41:18;;;;;;;1.60;0.20;;;;;;;14.06;46.64;103339.41;5038060;28;20064;-71
2023/05/20 06:43:46;;;;;;;1.65;0.20;;;;;;;14.08;46.50;103340.28;5039671;28;20053;-70
2023/05/20 06:46:13;;;;;;;2.53;0.25;;;;;;;14.10;46.69;103338.56;5042983;28;20037;-70
2023/05/20 06:48:40;;;;;;;0.25;0.17;;;;;;;14.14;46.68;103339.44;5034617;28;20056;-70
2023/05/20 06:51:08;;;;;;;1.23;0.20;;;;;;;14.21;46.72;103343.03;5037058;28;20057;-70
2023/05/20 06:53:35;;;;;;;2.45;0.30;;;;;;;14.30;46.05;103345.72;5037358;28;20049;-70
2023/05/20 06:56:02;;;;;;;0.98;0.45;;;;;;;14.36;45.85;103345.75;5038519;28;20060;-70
2023/05/20 06:58:29;;;;;;;1.48;0.20;;;;;;;14.44;45.98;103346.69;5036638;28;20057;-69
2023/05/20 07:00:56;;;;;;;3.92;0.20;;;;;;;14.50;45.97;103349.34;5040633;28;20048;-70
2023/05/20 07:03:23;;;;;;;1.05;0.20;;;;;;;14.63;45.70;103342.47;5039196;28;20056;-70
2023/05/20 07:05:51;;;;;;;2.30;0.20;;;;;;;14.76;45.77;103341.63;5031827;28;20044;-70
2023/05/20 07:08:19;;;;;;;2.58;0.20;;;;;;;14.88;45.51;103340.81;5040321;28;20055;-70
2023/05/20 07:10:46;;;;;;;0.70;0.20;;;;;;;15.01;45.55;103340.00;5036086;28;20087;-70
2023/05/20 07:13:13;;;;;;;2.58;0.20;;;;;;;15.13;45.39;103340.94;5034058;28;20080;-70
2023/05/20 07:15:40;;;;;;;1.05;0.20;;;;;;;15.21;45.05;103345.34;5031365;28;21208;-69
2023/05/20 07:18:06;;;;;;;3.90;0.20;;;;;;;15.34;45.25;103346.28;5041639;28;20409;-70
2023/05/20 07:20:33;;;;;;;2.65;0.40;;;;;;;15.44;44.97;103340.13;5040968;28;20053;-70
2023/05/20 07:23:02;;;;;;;2.20;0.43;;;;;;;15.56;44.45;103347.19;5039005;28;20407;-70
2023/05/20 07:25:31;;;;;;;1.02;0.10;;;;;;;15.69;44.31;103340.22;5038717;28;20057;-70
2023/05/20 07:27:59;;;;;;;4.72;0.63;;;;;;;15.84;44.29;103342.84;5039248;28;20052;-71
2023/05/20 07:30:26;;;;;;;0.80;0.10;;;;;;;15.95;43.70;103340.22;5036779;28;20052;-70
2023/05/20 07:32:53;;;;;;;3.97;0.20;;;;;;;16.06;43.28;103337.59;5043195;28;20049;-70
2023/05/20 07:35:20;;;;;;;1.35;0.20;;;;;;;16.18;43.19;103338.44;5041895;28;20056;-69
2023/05/20 07:37:46;;;;;;;2.00;0.57;;;;;;;16.28;42.35;103333.16;5031230;28;20049;-71
2023/05/20 07:40:14;;;;;;;2.28;0.15;;;;;;;16.36;42.37;103337.56;5040167;28;20060;-70
2023/05/20 07:42:42;;;;;;;1.80;0.20;;;;;;;16.44;42.15;103329.63;5038453;28;20049;-70
2023/05/20 07:45:10;;;;;;;2.00;0.20;;;;;;;16.50;41.55;103321.69;5038939;28;20095;-70
2023/05/20 07:47:37;;;;;;;2.08;0.15;;;;;;;16.64;41.65;103334.84;5034153;28;20410;-70
2023/05/20 07:50:04;;;;;;;0.52;0.20;;;;;;;16.73;41.56;103336.56;5036738;28;20058;-71
2023/05/20 07:52:31;;;;;;;0.63;0.20;;;;;;;16.84;41.44;103334.81;5037992;28;20057;-70
2023/05/20 07:54:58;;;;;;;1.65;0.10;;;;;;;16.94;41.30;103330.38;5039721;28;20045;-70
2023/05/20 07:57:25;;;;;;;0.40;0.20;;;;;;;16.96;41.36;103318.94;5037873;28;20053;-71
2023/05/20 07:59:53;;;;;;;1.50;0.20;;;;;;;17.12;40.99;103332.94;5035890;28;20052;-70
2023/05/20 08:02:20;;;;;;;1.25;0.10;;;;;;;17.18;40.76;103324.97;5037597;28;20045;-71
2023/05/20 08:04:47;;;;;;;0.95;0.10;;;;;;;17.21;40.54;103322.31;5041273;28;20114;-71
2023/05/20 08:07:14;;;;;;;1.08;0.17;;;;;;;17.28;40.66;103328.44;5035147;28;20041;-70
2023/05/20 08:09:40;;;;;;;0.82;0.10;;;;;;;17.33;40.47;103325.75;5040302;28;20056;-70
2023/05/20 08:12:08;;;;;;;2.17;0.10;;;;;;;17.40;39.44;103324.84;5038455;28;20493;-69
2023/05/20 08:14:34;;;;;;;0.40;0.15;;;;;;;17.39;39.10;103320.44;5038591;28;20128;-70
2023/05/20 08:17:03;;;;;;;1.95;0.10;;;;;;;17.41;39.13;103311.63;5036739;28;20520;-70
2023/05/20 08:19:30;;;;;;;2.63;0.13;;;;;;;17.42;39.25;103320.44;5038128;28;20048;-70
2023/05/20 08:21:57;;;;;;;1.35;0.10;;;;;;;17.44;38.94;103321.28;5037806;28;20065;-71
2023/05/20 08:24:23;;;;;;;0.70;0.10;;;;;;;17.46;38.37;103319.53;5036238;28;20046;-69
2023/05/20 08:26:50;;;;;;;0.45;0.10;;;;;;;17.48;38.72;103318.63;5038227;28;20115;-70
2023/05/20 08:29:17;;;;;;;1.58;0.20;;;;;;;17.45;38.20;103313.38;5033122;28;20069;-69
2023/05/20 08:31:44;;;;;;;0.82;0.10;;;;;;;17.41;37.60;103310.75;5034921;28;20757;-69
2023/05/20 08:34:12;;;;;;;1.80;0.10;;;;;;;17.48;37.64;103317.75;5035590;28;20045;-70
2023/05/20 08:36:39;;;;;;;2.72;0.20;;;;;;;17.37;38.20;103293.16;5037327;28;20056;-67
2023/05/20 08:39:06;;;;;;;1.67;0.20;;;;;;;17.51;37.75;103323.03;5038742;28;20073;-69
2023/05/20 08:41:33;;;;;;;0.65;0.20;;;;;;;17.51;38.08;103321.25;5034793;28;20051;-69
2023/05/20 08:44:01;;;;;;;1.65;0.20;;;;;;;17.56;37.96;103328.25;5035021;28;20056;-70
2023/05/20 08:46:28;;;;;;;1.30;0.80;;;;;;;17.58;38.29;103330.00;5035585;28;20060;-69
2023/05/20 08:48:55;;;;;;;2.05;0.10;;;;;;;17.60;38.39;103325.59;5038632;28;20041;-69
2023/05/20 08:51:26;;;;;;;1.10;0.10;;;;;;;17.64;38.02;103326.44;5036385;28;20041;-69
2023/05/20 08:53:54;;;;;;;1.50;0.25;;;;;;;17.64;38.10;103322.03;5040327;28;20061;-69
2023/05/20 08:56:22;;;;;;;0.90;0.30;;;;;;;17.68;37.96;103326.41;5033952;28;20512;-69
2023/05/20 08:58:49;;;;;;;2.38;0.95;;;;;;;17.72;38.83;103327.25;5034694;28;20067;-69
2023/05/20 09:01:16;;;;;;;4.82;0.98;;;;;;;17.73;38.20;103324.63;5038759;28;20049;-69
2023/05/20 09:03:43;;;;;;;1.08;0.55;;;;;;;17.75;38.34;103316.66;5041875;28;20049;-69
2023/05/20 09:06:11;;;;;;;2.90;0.90;;;;;;;17.74;38.97;103325.50;5039152;28;20052;-69
2023/05/20 09:08:40;;;;;;;1.50;0.40;;;;;;;17.75;38.83;103320.16;5039764;28;20049;-69
2023/05/20 09:11:10;;;;;;;1.10;0.38;;;;;;;17.76;38.29;103319.31;5043795;28;20049;-68
2023/05/20 09:13:37;;;;;;;0.77;0.30;;;;;;;17.76;39.07;103319.31;5038592;28;20056;-69
2023/05/20 09:16:04;;;;;;;2.78;0.30;;;;;;;17.72;39.20;103317.56;5043989;28;20053;-69
2023/05/20 09:18:31;;;;;;;0.35;0.20;;;;;;;17.77;39.45;103321.03;5043107;28;20398;-71
2023/05/20 09:20:58;;;;;;;2.40;0.30;;;;;;;17.75;39.26;103314.88;5038909;28;20445;-72
2023/05/20 09:23:26;;;;;;;1.75;0.20;;;;;;;17.74;39.13;103310.50;5038668;28;20072;-70
2023/05/20 09:25:54;;;;;;;0.70;0.20;;;;;;;17.73;39.00;103314.03;5045238;28;20051;-68
2023/05/20 09:28:24;;;;;;;0.20;0.10;;;;;;;17.71;39.25;103315.81;5043165;28;20053;-69
2023/05/20 09:30:51;;;;;;;1.00;0.20;;;;;;;17.67;38.40;103318.47;5038690;28;20150;-68
2023/05/20 09:33:18;;;;;;;0.20;0.10;;;;;;;17.62;37.65;103318.53;5044634;28;20156;-69
2023/05/20 09:35:45;;;;;;;3.30;0.57;;;;;;;17.59;38.15;103310.63;5041623;28;20044;-70
2023/05/20 09:38:14;;;;;;;1.00;0.47;;;;;;;17.58;38.47;103306.22;5038669;28;20150;-69
2023/05/20 09:40:43;;;;;;;0.20;0.10;;;;;;;17.60;38.38;103316.78;5039576;28;20068;-69
2023/05/20 09:43:12;;;;;;;1.23;0.13;;;;;;;17.57;38.10;103301.81;5042601;28;20052;-69
2023/05/20 09:45:39;;;;;;;1.10;0.20;;;;;;;17.47;38.43;103295.72;5043489;28;20045;-70
2023/05/20 09:48:09;;;;;;;0.55;0.20;;;;;;;17.57;38.41;103308.88;5037999;28;20045;-69
2023/05/20 09:50:37;;;;;;;0.38;0.20;;;;;;;17.57;38.59;103301.81;5039841;28;20053;-69
2023/05/20 09:53:05;;;;;;;0.10;0.00;;;;;;;17.54;38.70;103288.63;5037235;28;20045;-69
2023/05/20 09:55:33;;;;;;;3.25;0.20;;;;;;;17.59;38.56;103297.41;5043389;28;20552;-69
2023/05/20 09:58:03;;;;;;;0.10;0.10;;;;;;;17.63;38.45;103300.91;5042086;28;20045;-69
2023/05/20 10:00:31;;;;;;;0.20;0.10;;;;;;;17.65;38.17;103304.41;5041869;28;20053;-69
2023/05/20 10:02:59;;;;;;;1.40;0.10;;;;;;;17.67;37.85;103300.88;5039446;28;20041;-70
2023/05/20 10:05:30;;;;;;;2.35;0.10;;;;;;;17.68;37.55;103302.63;5041004;28;20130;-70
2023/05/20 10:08:40;;;;;;;0.98;0.20;;;;;;;17.72;38.45;103306.97;5038315;28;20056;-70
2023/05/20 10:11:16;;;;;;;1.00;0.20;;;;;;;17.72;37.84;103306.97;5037888;28;20122;-70
2023/05/20 10:14:05;;;;;;;0.70;0.20;;;;;;;17.71;37.68;103304.38;5041102;28;20405;-69
2023/05/20 10:16:44;;;;;;;1.65;0.20;;;;;;;17.67;37.34;103308.81;5040727;28;20056;-70
2023/05/20 10:19:23;;;;;;;0.20;0.10;;;;;;;17.64;36.64;103314.09;5040218;28;20108;-70
2023/05/20 10:21:57;;;;;;;0.40;0.10;;;;;;;17.62;37.09;103312.38;5037611;28;20057;-70
2023/05/20 10:24:31;;;;;;;0.32;0.10;;;;;;;17.61;37.06;103303.53;5040854;28;20045;-70
2023/05/20 10:26:59;;;;;;;0.20;0.10;;;;;;;17.60;36.66;103312.38;5039485;28;20165;-69
2023/05/20 10:29:26;;;;;;;0.80;0.20;;;;;;;17.58;36.81;103308.84;5040963;28;20088;-68
2023/05/20 10:31:54;;;;;;;0.30;0.20;;;;;;;17.55;36.64;103298.31;5039163;28;20052;-70
2023/05/20 10:34:22;;;;;;;1.67;0.20;;;;;;;17.56;36.73;103300.09;5036081;28;20060;-69
2023/05/20 10:36:58;;;;;;;1.70;0.10;;;;;;;17.54;36.35;103301.84;5039847;28;20049;-70
2023/05/20 10:39:29;;;;;;;0.13;0.10;;;;;;;17.50;36.35;103300.09;5043512;28;20482;-70
2023/05/20 10:42:07;;;;;;;0.30;0.20;;;;;;;17.47;36.11;103293.06;5034827;28;20045;-70
2023/05/20 10:44:44;;;;;;;0.20;0.10;;;;;;;17.34;35.79;103272.06;5039475;28;20073;-70
2023/05/20 10:47:12;;;;;;;0.88;0.10;;;;;;;17.33;35.63;103281.72;5037016;28;20041;-70
2023/05/20 10:49:44;;;;;;;1.08;0.10;;;;;;;17.29;35.36;103291.44;5033841;28;21095;-70
2023/05/20 10:52:11;;;;;;;0.85;0.20;;;;;;;17.25;35.98;103284.44;5034642;28;20041;-69
2023/05/20 10:54:44;;;;;;;0.70;0.20;;;;;;;17.23;36.31;103291.47;5037413;28;20297;-70
2023/05/20 10:57:11;;;;;;;0.63;0.10;;;;;;;17.20;36.17;103282.72;5032993;28;20106;-71
2023/05/20 10:59:38;;;;;;;6.78;0.20;;;;;;;17.18;36.17;103284.47;5028786;28;20057;-70
2023/05/20 11:02:05;;;;;;;1.30;0.10;;;;;;;17.16;36.21;103281.88;5036333;28;20049;-71
2023/05/20 11:04:33;;;;;;;1.00;0.10;;;;;;;17.15;35.76;103280.09;5034066;28;20057;-70
2023/05/20 11:07:01;;;;;;;1.75;0.20;;;;;;;17.14;36.03;103282.75;5035061;28;20059;-70
2023/05/20 11:09:30;;;;;;;1.15;0.10;;;;;;;17.14;36.01;103280.97;5032042;28;20163;-70
2023/05/20 11:11:56;;;;;;;0.73;0.10;;;;;;;17.15;36.46;103277.44;5037373;28;20053;-70
2023/05/20 11:14:23;;;;;;;1.48;0.10;;;;;;;17.14;36.32;103274.84;5038487;28;20056;-70
2023/05/20 11:16:56;;;;;;;1.70;0.20;;;;;;;17.18;36.74;103271.28;5037220;28;20050;-70
2023/05/20 11:19:22;;;;;;;2.25;0.20;;;;;;;17.24;37.05;103265.94;5031344;28;20057;-70
2023/05/20 11:21:51;;;;;;;0.75;0.20;;;;;;;17.26;36.93;103265.03;5036208;28;20061;-70
2023/05/20 11:24:26;;;;;;;0.50;0.15;;;;;;;17.27;36.96;103264.16;5036719;28;20422;-70
2023/05/20 11:26:53;;;;;;;0.40;0.17;;;;;;;17.28;36.51;103258.00;5034171;28;20077;-70
2023/05/20 11:29:21;;;;;;;1.50;0.20;;;;;;;17.33;36.25;103262.34;5033482;28;20054;-70
2023/05/20 11:31:50;;;;;;;1.63;0.17;;;;;;;17.36;36.23;103255.31;5035175;28;20049;-71